Time;durP1;ratioP1;P1;durP2;ratioP2;P2;SDS_P1;SDS_P2;PMS_P1;PMS_P2;Temp;Humidity;BMP_temperature;BMP_pressure;BME280_temperature;BME280_humidity;BME280_pressure;Samples;Min_cycle;Max_cycle;Signal;HPM_P1;HPM_P2
2022/06/07 03:01:44;;;;;;;10.83;10.23;;;16.00;99.90;;;;;;5434236;22;20237;-78
2022/06/07 03:04:10;;;;;;;9.67;9.17;;;16.00;99.90;;;;;;5055369;28;20538;-77
2022/06/07 03:06:36;;;;;;;9.00;8.40;;;16.00;99.90;;;;;;5054136;28;20265;-76
2022/06/07 03:09:02;;;;;;;13.80;13.03;;;15.90;99.90;;;;;;5055408;28;20251;-77
2022/06/07 03:11:28;;;;;;;16.60;15.80;;;15.90;99.90;;;;;;5047745;28;20238;-77
2022/06/07 03:13:54;;;;;;;13.17;12.50;;;15.80;99.90;;;;;;5031584;28;20179;-79
2022/06/07 03:16:20;;;;;;;13.63;12.93;;;15.80;99.90;;;;;;5043118;22;20887;-81
2022/06/07 03:18:46;;;;;;;10.00;9.40;;;15.80;99.90;;;;;;5019889;28;20283;-81
2022/06/07 03:21:12;;;;;;;11.77;11.27;;;15.80;99.90;;;;;;5022501;28;20187;-81
2022/06/07 03:23:38;;;;;;;11.40;10.60;;;15.80;99.90;;;;;;5029751;28;20191;-80
2022/06/07 03:26:09;;;;;;;16.60;15.80;;;15.80;99.90;;;;;;5042081;28;20260;-80
2022/06/07 03:28:35;;;;;;;35.73;33.53;;;15.80;99.90;;;;;;5039012;28;20187;-82
2022/06/07 03:31:06;;;;;;;67.87;64.50;;;15.90;99.90;;;;;;5039608;28;20241;-81
2022/06/07 03:33:33;;;;;;;47.23;44.87;;;15.90;99.90;;;;;;5038235;28;20187;-81
2022/06/07 03:36:05;;;;;;;50.87;48.30;;;15.90;99.90;;;;;;5038947;28;20215;-82
2022/06/07 03:38:31;;;;;;;74.40;70.77;;;15.90;99.90;;;;;;5039305;28;20194;-81
2022/06/07 03:40:57;;;;;;;75.80;71.93;;;15.90;99.90;;;;;;5046589;28;20171;-80
2022/06/07 03:43:22;;;;;;;106.30;100.77;;;15.90;99.90;;;;;;5040465;28;20206;-81
2022/06/07 03:45:48;;;;;;;100.27;95.33;;;16.00;99.90;;;;;;5039279;28;20195;-82
2022/06/07 03:48:14;;;;;;;69.60;66.20;;;16.00;99.90;;;;;;5037141;28;20179;-82
2022/06/07 03:50:40;;;;;;;118.13;112.27;;;16.00;99.90;;;;;;5038745;28;20183;-81
2022/06/07 03:53:06;;;;;;;151.47;143.73;;;16.00;99.90;;;;;;5045988;28;20213;-81
2022/06/07 03:55:32;;;;;;;114.50;108.60;;;16.00;99.90;;;;;;5044056;28;20218;-81
2022/06/07 03:57:57;;;;;;;110.90;105.50;;;16.10;99.90;;;;;;5036778;28;20662;-76
2022/06/07 04:00:23;;;;;;;88.50;83.80;;;16.10;99.90;;;;;;5030804;28;20179;-75
2022/06/07 04:02:49;;;;;;;99.03;94.17;;;16.10;99.90;;;;;;5032247;28;20237;-75
2022/06/07 04:05:15;;;;;;;93.97;89.37;;;16.10;99.90;;;;;;5033281;28;20195;-75
2022/06/07 04:10:26;;;;;;;43.87;41.27;;;16.20;99.90;;;;;;5026207;28;20191;-75
2022/06/07 04:12:51;;;;;;;16.30;15.13;;;16.40;99.90;;;;;;5022640;28;20558;-75
2022/06/07 04:15:18;;;;;;;11.80;11.00;;;16.50;99.90;;;;;;5012741;28;20219;-75
2022/06/07 04:17:43;;;;;;;7.87;7.47;;;16.60;99.90;;;;;;5029819;28;20630;-75
2022/06/07 04:20:10;;;;;;;11.63;11.13;;;16.70;99.90;;;;;;5031682;28;20179;-75
2022/06/07 04:22:36;;;;;;;32.93;31.30;;;16.80;99.90;;;;;;5032159;28;20615;-75
2022/06/07 04:25:02;;;;;;;56.47;53.77;;;16.90;99.90;;;;;;5047433;28;20212;-75
2022/06/07 04:27:27;;;;;;;79.47;75.53;;;17.00;99.90;;;;;;5036264;28;20573;-75
2022/06/07 04:29:53;;;;;;;92.60;88.03;;;16.90;99.90;;;;;;5032440;28;20194;-74
2022/06/07 04:32:20;;;;;;;98.27;93.50;;;17.00;99.90;;;;;;5031212;28;20175;-75
2022/06/07 04:34:46;;;;;;;127.07;120.97;;;16.80;99.90;;;;;;5032450;28;20234;-75
2022/06/07 04:37:12;;;;;;;127.60;121.60;;;16.70;99.90;;;;;;5032117;28;20202;-75
2022/06/07 04:39:37;;;;;;;106.13;101.13;;;16.60;99.90;;;;;;5032174;28;20179;-75
2022/06/07 04:42:04;;;;;;;72.93;69.23;;;16.60;99.90;;;;;;5032293;28;20183;-75
2022/06/07 04:44:30;;;;;;;73.83;70.03;;;16.60;99.90;;;;;;5032409;28;20210;-75
2022/06/07 04:46:56;;;;;;;91.40;86.77;;;16.70;99.90;;;;;;5031378;28;20178;-76
2022/06/07 04:49:22;;;;;;;48.37;45.57;;;16.70;99.90;;;;;;5032231;28;20182;-76
2022/06/07 04:51:48;;;;;;;36.73;34.93;;;16.70;99.90;;;;;;5032098;28;20183;-76
2022/06/07 04:54:14;;;;;;;72.00;68.50;;;16.70;99.90;;;;;;5030729;28;20179;-76
2022/06/07 04:56:40;;;;;;;109.97;104.63;;;16.80;99.90;;;;;;5031347;28;20175;-75
2022/06/07 04:59:07;;;;;;;89.40;84.87;;;16.70;99.90;;;;;;5031725;28;20178;-76
2022/06/07 05:01:35;;;;;;;111.77;106.47;;;16.60;99.90;;;;;;5031617;28;20182;-75
2022/06/07 05:04:02;;;;;;;114.57;109.03;;;16.70;99.90;;;;;;5032322;28;20186;-74
2022/06/07 05:06:32;;;;;;;93.67;89.10;;;16.70;99.90;;;;;;5031568;28;20232;-75
2022/06/07 05:09:02;;;;;;;130.97;124.53;;;16.90;99.90;;;;;;5031325;28;20190;-75
2022/06/07 05:11:29;;;;;;;139.87;133.27;;;16.90;99.90;;;;;;5031716;28;20192;-75
2022/06/07 05:14:00;;;;;;;117.73;112.03;;;16.90;99.90;;;;;;5031858;28;20175;-75
2022/06/07 05:16:26;;;;;;;108.03;102.97;;;16.90;99.90;;;;;;5029766;28;20234;-75
2022/06/07 05:18:53;;;;;;;113.17;107.90;;;16.90;99.90;;;;;;5030351;28;20658;-75
2022/06/07 05:21:20;;;;;;;126.87;120.93;;;16.90;99.90;;;;;;5030280;28;20186;-75
2022/06/07 05:23:47;;;;;;;116.67;110.93;;;17.10;99.90;;;;;;5031606;28;20175;-75
2022/06/07 05:26:24;;;;;;;103.00;98.07;;;17.20;99.90;;;;;;5024991;28;20689;-77
2022/06/07 05:28:50;;;;;;;31.60;30.10;;;17.20;99.90;;;;;;5015630;28;20198;-75
2022/06/07 05:31:16;;;;;;;19.53;18.50;;;17.30;99.90;;;;;;5029057;28;20563;-77
2022/06/07 05:33:42;;;;;;;5.23;4.83;;;17.50;99.90;;;;;;5030796;28;20195;-75
2022/06/07 05:36:09;;;;;;;6.07;5.67;;;17.60;99.90;;;;;;5030209;28;20732;-76
2022/06/07 05:38:35;;;;;;;30.83;29.40;;;17.80;99.90;;;;;;5029667;28;20179;-76
2022/06/07 05:41:01;;;;;;;36.93;35.17;;;17.90;99.90;;;;;;5030086;28;20171;-76
2022/06/07 05:43:27;;;;;;;46.00;43.63;;;18.10;99.90;;;;;;5031464;28;20178;-74
2022/06/07 05:45:55;;;;;;;77.67;73.93;;;18.10;99.90;;;;;;5031294;28;20670;-74
2022/06/07 05:48:22;;;;;;;91.87;87.47;;;18.10;99.90;;;;;;5030328;28;20237;-74
2022/06/07 05:50:50;;;;;;;75.23;71.63;;;18.10;99.90;;;;;;5030076;28;20202;-74
2022/06/07 05:53:18;;;;;;;89.23;84.87;;;18.10;99.90;;;;;;5030911;28;20598;-75
2022/06/07 05:55:44;;;;;;;103.57;98.17;;;18.10;99.90;;;;;;5029898;28;20213;-74
2022/06/07 05:58:11;;;;;;;114.03;108.53;;;18.20;99.90;;;;;;5030485;28;20175;-74
2022/06/07 06:00:38;;;;;;;107.00;101.87;;;18.20;99.90;;;;;;5031200;28;20651;-74
2022/06/07 06:03:05;;;;;;;101.43;96.37;;;18.20;99.90;;;;;;5031604;28;20183;-74
2022/06/07 06:05:33;;;;;;;83.20;79.13;;;18.30;99.90;;;;;;5038392;28;20297;-74
2022/06/07 06:10:43;;;;;;;19.60;18.63;;;18.70;99.90;;;;;;5031107;28;20206;-75
2022/06/07 06:13:09;;;;;;;7.43;6.93;;;18.80;99.90;;;;;;5030975;28;20178;-75
2022/06/07 06:15:36;;;;;;;6.30;5.97;;;18.90;99.90;;;;;;5030576;28;20219;-74
2022/06/07 06:18:05;;;;;;;4.80;4.53;;;18.90;99.90;;;;;;5029309;28;20670;-75
2022/06/07 06:20:32;;;;;;;4.17;3.77;;;19.00;99.90;;;;;;5031158;28;20221;-74
2022/06/07 06:22:58;;;;;;;4.20;4.00;;;19.10;99.90;;;;;;5030616;28;20262;-74
2022/06/07 06:25:24;;;;;;;4.53;4.33;;;19.20;99.90;;;;;;5029979;28;20210;-74
2022/06/07 06:27:49;;;;;;;5.13;4.73;;;19.30;99.90;;;;;;5028936;28;20186;-75
2022/06/07 06:30:15;;;;;;;5.80;5.13;;;19.40;99.90;;;;;;5029148;28;20222;-74
2022/06/07 06:32:41;;;;;;;4.37;4.27;;;19.50;99.90;;;;;;5029627;28;20248;-74
2022/06/07 06:35:07;;;;;;;4.53;4.33;;;19.40;99.90;;;;;;5029141;28;20206;-75
2022/06/07 06:37:33;;;;;;;4.57;4.37;;;19.50;99.90;;;;;;5030187;28;20189;-75
2022/06/07 06:39:59;;;;;;;3.97;3.67;;;19.80;99.90;;;;;;5031128;28;20639;-74
2022/06/07 06:42:24;;;;;;;7.57;7.07;;;20.30;99.90;;;;;;5030503;28;20175;-75
2022/06/07 06:44:51;;;;;;;14.47;13.80;;;20.80;99.90;;;;;;5030945;28;20236;-78
2022/06/07 06:47:17;;;;;;;8.98;8.50;;;21.10;99.90;;;;;;5027522;28;20210;-75
2022/06/07 06:49:43;;;;;;;10.43;9.73;;;21.50;99.90;;;;;;5030574;28;20187;-76
2022/06/07 06:52:10;;;;;;;20.80;19.38;;;21.50;99.90;;;;;;5029469;28;20186;-76
2022/06/07 06:54:37;;;;;;;39.13;36.90;;;21.20;99.90;;;;;;5029404;28;20297;-75
2022/06/07 06:57:04;;;;;;;40.88;38.22;;;21.10;99.90;;;;;;5028932;28;20172;-76
2022/06/07 06:59:31;;;;;;;16.00;14.60;;;21.40;99.90;;;;;;5030299;28;20179;-75
2022/06/07 07:01:57;;;;;;;24.10;22.90;;;21.90;99.90;;;;;;5029429;28;20168;-74
2022/06/07 07:04:23;;;;;;;25.40;23.83;;;22.10;99.90;;;;;;5028324;28;20198;-76
2022/06/07 07:06:50;;;;;;;12.88;11.73;;;22.80;99.90;;;;;;5030250;28;20542;-76
2022/06/07 07:09:18;;;;;;;22.58;21.33;;;23.90;99.90;;;;;;5029718;28;20186;-74
2022/06/07 07:11:47;;;;;;;5.00;4.80;;;24.60;99.90;;;;;;5030122;28;20175;-75
2022/06/07 07:14:13;;;;;;;8.15;7.80;;;24.90;99.90;;;;;;5029050;28;20183;-75
2022/06/07 07:16:48;;;;;;;11.18;10.73;;;25.00;99.90;;;;;;5030168;28;20175;-77
2022/06/07 07:19:15;;;;;;;6.32;6.03;;;25.20;99.90;;;;;;5033519;28;20270;-74
2022/06/07 07:21:43;;;;;;;3.80;3.50;;;25.30;99.90;;;;;;5034071;28;20175;-74
2022/06/07 07:24:13;;;;;;;4.90;4.70;;;24.90;99.90;;;;;;5032516;28;20261;-74
2022/06/07 07:26:43;;;;;;;5.60;5.22;;;24.70;99.90;;;;;;5031978;28;20621;-74
2022/06/07 07:29:14;;;;;;;9.88;9.38;;;23.90;99.90;;;;;;5033900;28;20713;-73
2022/06/07 07:31:41;;;;;;;16.98;16.17;;;23.10;99.90;;;;;;5033297;28;20231;-73
2022/06/07 07:34:09;;;;;;;10.38;9.70;;;22.80;99.90;;;;;;5033138;28;20189;-75
2022/06/07 07:36:38;;;;;;;5.13;4.57;;;22.30;99.90;;;;;;5033832;28;20574;-74
2022/06/07 07:39:04;;;;;;;3.17;3.08;;;22.10;99.90;;;;;;5032459;28;20659;-74
2022/06/07 07:41:32;;;;;;;3.15;2.92;;;21.90;99.90;;;;;;5034443;28;20643;-73
2022/06/07 07:44:01;;;;;;;3.63;3.30;;;22.00;99.90;;;;;;5050089;28;20214;-73
2022/06/07 07:46:31;;;;;;;3.63;2.85;;;22.10;99.90;;;;;;5037915;28;20225;-74
2022/06/07 07:48:56;;;;;;;3.22;3.05;;;22.70;99.90;;;;;;5033488;28;20655;-74
2022/06/07 07:51:25;;;;;;;13.30;12.50;;;23.60;99.90;;;;;;5033791;28;20187;-74
2022/06/07 07:53:53;;;;;;;10.02;9.52;;;24.60;99.90;;;;;;5031732;28;20187;-74
2022/06/07 07:56:20;;;;;;;4.55;4.40;;;24.90;99.90;;;;;;5031954;28;20314;-74
2022/06/07 07:58:46;;;;;;;4.00;3.80;;;24.70;99.90;;;;;;5032319;28;20550;-74
2022/06/07 08:01:15;;;;;;;4.40;4.00;;;24.20;99.90;;;;;;5032421;28;20732;-73
2022/06/07 08:03:42;;;;;;;4.30;4.00;;;24.10;99.90;;;;;;5033136;28;20179;-74
2022/06/07 08:06:17;;;;;;;4.55;4.25;;;24.20;99.90;;;;;;5032183;28;20221;-74
2022/06/07 08:08:45;;;;;;;3.38;3.17;;;24.30;99.90;;;;;;5033134;28;20665;-74
2022/06/07 08:11:12;;;;;;;3.50;3.40;;;24.50;99.90;;;;;;5033350;28;20187;-75
2022/06/07 08:13:38;;;;;;;4.38;4.15;;;24.70;99.90;;;;;;5033113;28;20183;-74
2022/06/07 08:16:06;;;;;;;4.10;3.90;;;24.70;99.90;;;;;;5032469;28;20211;-75
2022/06/07 08:18:34;;;;;;;5.15;4.95;;;24.90;99.90;;;;;;5032885;28;20186;-74
2022/06/07 08:21:05;;;;;;;6.32;6.13;;;24.90;99.90;;;;;;5033848;28;20202;-73
2022/06/07 08:23:32;;;;;;;5.60;5.20;;;24.80;99.90;;;;;;5032742;28;20678;-72
2022/06/07 08:26:00;;;;;;;5.20;4.95;;;24.80;99.90;;;;;;5032401;28;20214;-74
2022/06/07 08:28:26;;;;;;;4.82;3.10;;;25.40;97.70;;;;;;5027581;28;20704;-73
2022/06/07 08:30:52;;;;;;;5.40;5.10;;;26.40;95.90;;;;;;5030750;28;20278;-72
2022/06/07 08:39:05;;;;;;;4.43;4.22;;;25.40;95.60;;;;;;5032461;28;20214;-73
2022/06/07 08:41:36;;;;;;;4.32;3.92;;;25.00;94.60;;;;;;5031681;28;20187;-71
2022/06/07 08:44:12;;;;;;;3.42;3.33;;;24.50;95.50;;;;;;5032549;28;20186;-72
2022/06/07 08:46:39;;;;;;;4.45;4.05;;;24.50;97.30;;;;;;5031590;28;20183;-70
2022/06/07 08:49:06;;;;;;;2.90;2.78;;;24.90;96.70;;;;;;5032398;28;20274;-72
2022/06/07 08:51:56;;;;;;;3.95;3.33;;;25.10;96.00;;;;;;5032740;28;20187;-71
2022/06/07 08:54:27;;;;;;;3.90;3.58;;;25.00;96.30;;;;;;5011670;28;20552;-72
2022/06/07 08:56:53;;;;;;;4.13;3.92;;;25.50;94.80;;;;;;5014903;28;20180;-72
2022/06/07 08:59:21;;;;;;;4.53;4.25;;;26.40;93.60;;;;;;5012362;28;20214;-71
2022/06/07 09:02:31;;;;;;;5.00;4.30;;;27.00;91.40;;;;;;5022168;28;20314;-72
2022/06/07 09:04:58;;;;;;;4.53;4.32;;;27.80;90.60;;;;;;5012211;28;20239;-73
2022/06/07 09:07:25;;;;;;;5.60;5.22;;;27.80;87.80;;;;;;5012152;28;20266;-72
2022/06/07 09:12:57;;;;;;;6.15;5.75;;;27.00;88.50;;;;;;5019239;28;20187;-72
2022/06/07 09:15:30;;;;;;;5.65;5.38;;;26.20;90.90;;;;;;5048484;22;20297;-75
2022/06/07 09:18:00;;;;;;;4.30;4.18;;;25.30;91.80;;;;;;4991368;28;20184;-77
2022/06/07 09:20:39;;;;;;;4.47;4.28;;;25.20;92.30;;;;;;4992123;28;20172;-77
2022/06/07 09:23:45;;;;;;;4.85;4.65;;;25.60;91.70;;;;;;4991138;28;20573;-77
2022/06/07 09:26:24;;;;;;;6.18;5.63;;;26.40;90.90;;;;;;4982921;28;20204;-76
2022/06/07 09:29:05;;;;;;;5.53;5.22;;;27.10;90.00;;;;;;4992147;28;20180;-75
2022/06/07 09:31:31;;;;;;;5.72;5.22;;;27.20;88.60;;;;;;4990410;28;20676;-76
2022/06/07 09:34:02;;;;;;;4.68;4.45;;;27.40;86.70;;;;;;4991643;28;20184;-76
2022/06/07 09:36:36;;;;;;;6.25;5.85;;;27.80;86.30;;;;;;4992276;28;20223;-76
2022/06/07 09:39:12;;;;;;;5.53;5.13;;;28.30;87.20;;;;;;4991594;28;20168;-76
2022/06/07 09:41:44;;;;;;;9.45;9.05;;;27.90;84.90;;;;;;4991698;28;20181;-75
2022/06/07 09:44:21;;;;;;;9.15;8.65;;;28.00;82.80;;;;;;4991665;28;20195;-75
2022/06/07 09:46:50;;;;;;;15.80;14.63;;;28.10;81.30;;;;;;4991971;28;20203;-75
2022/06/07 09:49:28;;;;;;;16.25;15.48;;;28.40;80.60;;;;;;4991944;28;20180;-75
2022/06/07 09:52:02;;;;;;;18.02;17.02;;;28.80;80.30;;;;;;4991819;28;20184;-75
2022/06/07 09:54:28;;;;;;;20.38;19.25;;;28.60;80.00;;;;;;4990252;28;20649;-75
2022/06/07 09:57:04;;;;;;;27.80;26.35;;;28.20;78.90;;;;;;4991591;28;20203;-75
2022/06/07 10:00:17;;;;;;;18.20;17.02;;;27.50;79.40;;;;;;4991877;28;20273;-74
2022/06/07 10:03:11;;;;;;;15.10;14.27;;;27.50;79.60;;;;;;4991493;28;20663;-76
2022/06/07 10:05:47;;;;;;;31.38;29.70;;;28.00;79.40;;;;;;4984880;28;20212;-76
2022/06/07 10:08:51;;;;;;;18.52;17.52;;;27.60;77.50;;;;;;4990841;28;20223;-77
2022/06/07 10:11:35;;;;;;;4.93;4.68;;;26.50;84.10;;;;;;4972252;28;20195;-75
2022/06/07 10:14:16;;;;;;;4.63;4.32;;;25.50;88.50;;;;;;4988823;28;20235;-75
2022/06/07 10:17:11;;;;;;;7.47;4.82;;;24.70;90.50;;;;;;4990298;28;20243;-74
2022/06/07 10:19:57;;;;;;;4.15;3.83;;;24.10;91.40;;;;;;4990051;28;20176;-74
2022/06/07 10:23:05;;;;;;;3.25;3.15;;;23.90;92.60;;;;;;4990043;28;20186;-76
2022/06/07 10:25:54;;;;;;;2.88;2.78;;;24.20;92.20;;;;;;4991225;28;20246;-75
2022/06/07 10:28:44;;;;;;;3.67;3.58;;;24.30;92.30;;;;;;4972301;28;20797;-75
2022/06/07 10:31:15;;;;;;;3.63;3.53;;;24.30;91.20;;;;;;4990268;28;20192;-76
2022/06/07 10:34:06;;;;;;;3.60;3.30;;;24.50;91.10;;;;;;4990792;28;20187;-76
2022/06/07 10:37:06;;;;;;;3.42;3.22;;;24.60;91.40;;;;;;4990208;28;20227;-75
2022/06/07 10:40:03;;;;;;;3.28;3.10;;;24.30;90.90;;;;;;4990519;28;20192;-75
2022/06/07 10:42:45;;;;;;;2.88;2.78;;;24.20;91.70;;;;;;4990244;28;20632;-76
2022/06/07 10:45:22;;;;;;;3.53;3.42;;;24.10;91.40;;;;;;4992217;28;20234;-77
2022/06/07 10:48:01;;;;;;;4.13;3.78;;;24.10;92.00;;;;;;4989834;28;20315;-77
2022/06/07 10:50:38;;;;;;;4.35;4.05;;;24.20;92.60;;;;;;4989906;28;20184;-76
2022/06/07 10:53:37;;;;;;;3.72;3.53;;;24.30;93.00;;;;;;4993063;28;20203;-76
2022/06/07 10:56:17;;;;;;;4.15;3.95;;;24.30;91.60;;;;;;4994956;28;20679;-76
2022/06/07 10:58:47;;;;;;;3.28;3.17;;;25.20;91.60;;;;;;4993537;28;20184;-75
2022/06/07 11:01:38;;;;;;;3.40;3.30;;;25.30;90.30;;;;;;4995434;28;20207;-75
2022/06/07 11:10:17;;;;;;;3.05;2.85;;;24.50;91.60;;;;;;4995850;28;20188;-76
2022/06/07 11:13:18;;;;;;;3.83;3.42;;;24.50;91.70;;;;;;4993477;28;20677;-75
2022/06/07 11:16:09;;;;;;;3.53;3.22;;;24.50;92.10;;;;;;4993582;28;20234;-75
2022/06/07 11:18:36;;;;;;;3.10;3.00;;;24.60;92.00;;;;;;4993445;28;20699;-75
2022/06/07 11:21:02;;;;;;;4.25;4.00;;;25.80;90.80;;;;;;4992273;28;20188;-76
2022/06/07 11:23:35;;;;;;;5.07;4.78;;;26.40;90.00;;;;;;4994165;28;20183;-77
2022/06/07 11:26:18;;;;;;;4.30;4.10;;;26.80;90.90;;;;;;4995780;28;20253;-75
2022/06/07 11:28:50;;;;;;;5.72;5.50;;;26.70;87.70;;;;;;4993539;28;20185;-77
2022/06/07 11:31:34;;;;;;;5.10;4.72;;;26.10;87.60;;;;;;4993337;28;20211;-77
2022/06/07 11:34:30;;;;;;;4.70;4.50;;;25.50;88.20;;;;;;4992830;28;20200;-69
2022/06/07 11:37:16;;;;;;;4.85;4.18;;;25.00;90.80;;;;;;4990355;28;20246;-69
2022/06/07 11:39:54;;;;;;;3.95;3.78;;;24.60;91.90;;;;;;4986717;28;20222;-69
2022/06/07 11:42:28;;;;;;;3.47;2.90;;;24.40;91.40;;;;;;4993775;28;20235;-69
2022/06/07 11:44:58;;;;;;;4.75;4.55;;;24.20;93.40;;;;;;4992902;28;20574;-73
2022/06/07 11:47:33;;;;;;;4.10;3.78;;;24.10;94.00;;;;;;4992638;28;20218;-71
2022/06/07 11:50:03;;;;;;;3.22;3.03;;;24.30;93.50;;;;;;4994324;28;20603;-71
2022/06/07 11:52:34;;;;;;;3.15;3.05;;;24.30;93.70;;;;;;4992905;28;20280;-71
2022/06/07 11:55:14;;;;;;;3.65;3.35;;;24.50;92.30;;;;;;4994360;28;20239;-70
2022/06/07 11:57:53;;;;;;;3.20;3.00;;;25.00;92.20;;;;;;4994151;28;20188;-71
2022/06/07 12:00:18;;;;;;;4.05;3.85;;;26.10;91.20;;;;;;4994221;28;20645;-71
2022/06/07 12:03:11;;;;;;;5.85;5.65;;;27.90;86.80;;;;;;4992382;28;20180;-70
2022/06/07 12:05:45;;;;;;;5.53;5.10;;;27.90;84.30;;;;;;4994179;28;20715;-71
2022/06/07 12:08:44;;;;;;;5.00;4.53;;;27.20;82.30;;;;;;4993665;28;20184;-71
2022/06/07 12:11:23;;;;;;;5.10;4.80;;;26.20;86.00;;;;;;4992675;28;20184;-71
2022/06/07 12:14:04;;;;;;;6.38;5.70;;;25.70;89.60;;;;;;4992451;28;20185;-70
2022/06/07 12:16:42;;;;;;;4.93;4.63;;;24.90;90.80;;;;;;4993268;28;20220;-71
2022/06/07 12:19:21;;;;;;;4.32;3.92;;;24.20;91.40;;;;;;4993601;28;20206;-71
2022/06/07 12:21:58;;;;;;;3.53;3.25;;;23.60;93.20;;;;;;4993860;28;20212;-70
2022/06/07 12:24:26;;;;;;;4.25;4.00;;;23.40;94.20;;;;;;4992174;28;20184;-70
2022/06/07 12:26:52;;;;;;;2.65;2.55;;;23.10;94.50;;;;;;4994921;28;20231;-82
2022/06/07 12:29:25;;;;;;;4.20;4.03;;;23.00;94.80;;;;;;4994400;28;20263;-82
2022/06/07 12:32:01;;;;;;;5.22;4.93;;;22.90;94.90;;;;;;4995378;28;20212;-80
2022/06/07 12:34:36;;;;;;;3.60;3.40;;;23.20;96.10;;;;;;4995758;28;20242;-80
2022/06/07 12:37:08;;;;;;;3.20;3.00;;;24.90;95.90;;;;;;4995786;28;20196;-82
2022/06/07 12:39:44;;;;;;;2.78;2.58;;;26.20;93.40;;;;;;5009863;28;20193;-81
2022/06/07 12:42:15;;;;;;;3.55;3.35;;;26.00;91.50;;;;;;4995015;28;20271;-80
2022/06/07 12:44:54;;;;;;;3.33;3.15;;;25.30;92.30;;;;;;4994329;28;20192;-79
2022/06/07 12:47:27;;;;;;;3.20;3.10;;;24.80;93.30;;;;;;4995159;28;20258;-78
2022/06/07 12:49:54;;;;;;;3.92;3.63;;;24.50;91.90;;;;;;4999166;28;20196;-82
2022/06/07 12:52:25;;;;;;;4.28;4.07;;;24.20;92.30;;;;;;5005151;28;20189;-78
2022/06/07 12:54:54;;;;;;;5.07;4.78;;;23.90;93.80;;;;;;4997197;28;20208;-79
2022/06/07 12:57:22;;;;;;;4.78;4.30;;;23.80;93.90;;;;;;5013130;28;20209;-80
2022/06/07 13:00:14;;;;;;;3.58;3.28;;;23.60;94.10;;;;;;5001412;28;20211;-82
2022/06/07 13:02:46;;;;;;;4.15;3.85;;;23.90;94.30;;;;;;4993201;28;20219;-83
2022/06/07 13:05:36;;;;;;;3.15;3.05;;;24.10;95.70;;;;;;5000523;28;20176;-83
2022/06/07 13:08:14;;;;;;;3.72;3.42;;;24.20;95.00;;;;;;5001640;28;20300;-83
2022/06/07 13:10:40;;;;;;;3.88;3.67;;;24.30;94.40;;;;;;5003691;28;20695;-84
2022/06/07 13:13:25;;;;;;;4.72;3.58;;;24.30;93.60;;;;;;5007157;28;20192;-83
2022/06/07 13:16:08;;;;;;;3.53;3.33;;;24.40;93.40;;;;;;4999792;28;20224;-84
2022/06/07 13:18:38;;;;;;;3.15;3.05;;;24.60;94.40;;;;;;5005772;28;20177;-84
2022/06/07 13:21:39;;;;;;;4.90;3.80;;;24.90;94.10;;;;;;5001485;28;20180;-84
2022/06/07 13:24:14;;;;;;;4.10;3.90;;;25.20;92.60;;;;;;5015319;28;20188;-83
2022/06/07 13:26:43;;;;;;;3.53;3.33;;;25.40;92.70;;;;;;5007236;28;20220;-85
2022/06/07 13:29:18;;;;;;;4.32;4.03;;;26.00;91.30;;;;;;5013865;28;20187;-82
2022/06/07 13:31:51;;;;;;;6.20;5.90;;;27.20;89.70;;;;;;5010186;28;20196;-84
2022/06/07 13:34:28;;;;;;;26.38;25.00;;;28.90;80.90;;;;;;5007989;28;20188;-83
2022/06/07 13:37:11;;;;;;;19.00;17.95;;;30.70;74.50;;;;;;4998675;28;20208;-83
2022/06/07 13:39:58;;;;;;;27.95;26.60;;;29.70;73.40;;;;;;4996394;28;20276;-84
2022/06/07 13:42:33;;;;;;;25.15;23.85;;;28.50;76.40;;;;;;4996997;28;20184;-83
2022/06/07 13:45:18;;;;;;;25.48;24.10;;;27.90;77.70;;;;;;4997378;28;20192;-82
2022/06/07 13:48:07;;;;;;;13.55;12.88;;;27.50;78.50;;;;;;4996523;28;20527;-82
2022/06/07 13:53:56;;;;;;;4.18;4.00;;;26.70;80.50;;;;;;5010976;28;20188;-81
2022/06/07 13:56:24;;;;;;;5.03;4.63;;;26.50;81.60;;;;;;5006417;28;20223;-83
2022/06/07 13:58:55;;;;;;;6.05;5.75;;;26.70;83.80;;;;;;4999542;28;20648;-82
2022/06/07 14:01:50;;;;;;;5.60;5.22;;;26.90;85.20;;;;;;4998428;28;20246;-82
2022/06/07 14:04:31;;;;;;;6.18;5.97;;;27.10;84.10;;;;;;4998115;28;20242;-82
2022/06/07 14:06:58;;;;;;;8.43;7.72;;;27.10;84.90;;;;;;4997897;28;20220;-83
2022/06/07 14:09:30;;;;;;;6.88;6.28;;;27.00;85.10;;;;;;4999158;28;20180;-81
2022/06/07 14:12:02;;;;;;;5.65;5.45;;;27.20;85.20;;;;;;4999759;28;20184;-82
2022/06/07 14:14:28;;;;;;;5.38;5.05;;;27.60;83.00;;;;;;5001022;28;20188;-82
2022/06/07 14:17:20;;;;;;;5.40;5.20;;;27.50;82.60;;;;;;4996048;28;20216;-82
2022/06/07 14:19:57;;;;;;;8.65;8.25;;;27.60;81.80;;;;;;4996456;28;20187;-81
2022/06/07 14:22:27;;;;;;;9.10;8.60;;;27.90;80.50;;;;;;4997935;28;20206;-81
2022/06/07 14:24:54;;;;;;;7.88;7.45;;;27.90;80.60;;;;;;4983835;28;20235;-82
2022/06/07 14:27:23;;;;;;;4.88;4.57;;;27.50;81.80;;;;;;4973356;28;20205;-80
2022/06/07 14:29:49;;;;;;;6.35;6.05;;;27.00;84.10;;;;;;4978613;28;20172;-82
2022/06/07 14:32:23;;;;;;;6.55;6.25;;;26.80;82.70;;;;;;4994148;28;20188;-82
2022/06/07 14:34:50;;;;;;;11.80;11.23;;;27.40;87.20;;;;;;4993461;28;20867;-83
2022/06/07 14:37:19;;;;;;;14.77;14.05;;;28.80;79.80;;;;;;4993100;28;20196;-81
2022/06/07 14:39:45;;;;;;;24.70;23.42;;;28.50;77.40;;;;;;4993640;28;20176;-79
2022/06/07 14:42:13;;;;;;;15.88;15.07;;;27.70;78.70;;;;;;4996704;28;20199;-81
2022/06/07 14:44:41;;;;;;;9.43;8.93;;;27.30;82.20;;;;;;4995468;28;20180;-83
2022/06/07 14:47:17;;;;;;;7.78;7.47;;;27.10;82.50;;;;;;4995798;28;20200;-80
2022/06/07 14:49:45;;;;;;;11.52;10.90;;;27.10;83.30;;;;;;4997247;28;20200;-81
2022/06/07 14:52:14;;;;;;;13.65;12.95;;;26.70;82.40;;;;;;5001947;28;20188;-78
2022/06/07 14:54:42;;;;;;;4.03;3.83;;;26.40;80.40;;;;;;5011942;28;20343;-80
2022/06/07 14:57:35;;;;;;;13.55;12.80;;;26.40;84.00;;;;;;5008393;28;20195;-80
2022/06/07 15:00:01;;;;;;;14.50;13.77;;;28.00;80.50;;;;;;4994524;28;20731;-80
2022/06/07 15:02:31;;;;;;;14.63;13.98;;;28.10;76.70;;;;;;4994343;28;20211;-81
2022/06/07 15:05:02;;;;;;;12.93;12.30;;;28.10;79.60;;;;;;4995458;28;20184;-81
2022/06/07 15:07:31;;;;;;;22.65;21.45;;;28.70;79.20;;;;;;4991059;28;20239;-82
2022/06/07 15:09:58;;;;;;;7.32;6.93;;;29.40;74.10;;;;;;4990719;28;20272;-77
2022/06/07 15:12:26;;;;;;;11.18;10.45;;;31.20;71.40;;;;;;4996271;28;20188;-78
2022/06/07 15:14:53;;;;;;;6.05;5.80;;;32.20;67.90;;;;;;4995873;28;20277;-77
2022/06/07 15:17:24;;;;;;;7.00;6.70;;;32.30;67.60;;;;;;5016329;23;20224;-78
2022/06/07 15:19:50;;;;;;;14.38;13.70;;;32.90;65.10;;;;;;4991624;28;20187;-77
2022/06/07 15:22:17;;;;;;;46.08;43.65;;;32.70;62.70;;;;;;4997646;28;20255;-77
2022/06/07 15:24:43;;;;;;;37.67;35.95;;;32.90;59.90;;;;;;5011183;28;20759;-76
2022/06/07 15:27:09;;;;;;;87.13;82.95;;;32.80;60.40;;;;;;5010377;28;20204;-76
2022/06/07 15:29:52;;;;;;;56.35;53.65;;;32.30;58.40;;;;;;5011334;28;20179;-76
2022/06/07 15:32:24;;;;;;;62.75;59.78;;;32.10;59.00;;;;;;5002284;28;20222;-76
2022/06/07 15:34:54;;;;;;;64.53;61.50;;;32.40;58.40;;;;;;4991156;28;20219;-76
2022/06/07 15:37:22;;;;;;;107.90;102.85;;;32.80;59.40;;;;;;4991830;28;20211;-79
2022/06/07 15:39:48;;;;;;;85.80;81.68;;;32.60;57.40;;;;;;4998875;28;20199;-80
2022/06/07 15:44:58;;;;;;;33.90;32.20;;;31.80;60.30;;;;;;5016129;28;20176;-81
2022/06/07 15:47:24;;;;;;;6.05;5.75;;;30.30;63.50;;;;;;5014159;28;20726;-79
2022/06/07 15:49:50;;;;;;;6.00;3.70;;;29.60;63.90;;;;;;5015371;28;20179;-76
2022/06/07 15:52:22;;;;;;;3.85;3.75;;;29.50;66.00;;;;;;5018871;28;20177;-76
2022/06/07 15:54:47;;;;;;;7.60;7.30;;;30.00;65.90;;;;;;5029083;28;20180;-77
2022/06/07 15:57:13;;;;;;;4.40;4.10;;;30.00;67.50;;;;;;5013721;28;20707;-78
2022/06/07 15:59:39;;;;;;;6.30;6.00;;;30.30;65.00;;;;;;5014206;28;20222;-76
2022/06/07 16:02:06;;;;;;;4.43;4.22;;;30.10;66.60;;;;;;5009830;28;20175;-80
2022/06/07 16:04:32;;;;;;;4.47;4.28;;;30.80;65.60;;;;;;4997918;28;20187;-79
2022/06/07 16:06:58;;;;;;;4.03;3.92;;;30.60;62.90;;;;;;4996551;28;20195;-79
2022/06/07 16:09:25;;;;;;;4.95;4.13;;;30.70;63.80;;;;;;5007609;28;20183;-79
2022/06/07 16:11:51;;;;;;;3.17;3.08;;;31.00;62.60;;;;;;4996086;28;20334;-79
2022/06/07 16:14:17;;;;;;;4.63;4.45;;;31.10;61.40;;;;;;4996853;28;20219;-79
2022/06/07 16:16:44;;;;;;;6.60;6.07;;;30.90;62.60;;;;;;4996182;28;20370;-79
2022/06/07 16:19:10;;;;;;;5.05;4.95;;;31.10;61.40;;;;;;4997161;28;20176;-78
2022/06/07 16:21:36;;;;;;;6.80;6.50;;;30.30;64.30;;;;;;4996920;28;20577;-79
2022/06/07 16:24:02;;;;;;;4.65;4.35;;;29.50;62.70;;;;;;5004072;28;20202;-79
2022/06/07 16:26:29;;;;;;;8.77;8.30;;;28.80;66.80;;;;;;4998694;28;20614;-78
2022/06/07 16:34:25;;;;;;;23.90;22.75;;;27.70;69.80;;;;;;5012381;28;20188;-81